createdAt,value
2017-03-20T00:00:33.105Z,11.32
2017-03-20T00:01:33.117Z,11.33
2017-03-20T00:02:32.783Z,11.21
2017-03-20T00:03:32.878Z,11.33
2017-03-20T00:04:33.038Z,11.32
2017-03-20T00:05:32.696Z,11.33
2017-03-20T00:06:32.684Z,11.28
2017-03-20T00:07:32.964Z,11.24
2017-03-20T00:08:32.638Z,11.32
2017-03-20T00:09:32.930Z,11.38
2017-03-20T00:10:32.592Z,11.31
2017-03-20T00:11:32.895Z,11.35
2017-03-20T00:12:32.866Z,11.32
2017-03-20T00:13:32.859Z,11.32
2017-03-20T00:14:32.649Z,11.29
2017-03-20T00:15:32.495Z,11.28
2017-03-20T00:16:32.786Z,11.26
2017-03-20T00:17:32.785Z,11.36
2017-03-20T00:18:32.434Z,11.48
2017-03-20T00:19:32.106Z,11.42
2017-03-20T00:20:32.086Z,11.31
2017-03-20T00:21:32.374Z,11.32
2017-03-20T00:22:32.364Z,11.32
2017-03-20T00:23:32.647Z,11.36
2017-03-20T00:24:32.315Z,11.35
2017-03-20T00:25:32.305Z,11.36
2017-03-20T00:26:32.276Z,11.42
2017-03-20T00:27:32.575Z,11.4
2017-03-20T00:28:32.555Z,11.5
2017-03-20T00:29:32.233Z,11.47
2017-03-20T00:30:32.524Z,11.35
2017-03-20T00:31:32.496Z,11.36
2017-03-20T00:32:32.462Z,11.43
2017-03-20T00:33:32.458Z,11.5
2017-03-20T00:34:32.417Z,11.48
2017-03-20T00:35:32.404Z,11.43
2017-03-20T00:36:32.067Z,11.57
2017-03-20T00:37:32.377Z,11.64
2017-03-20T00:38:32.046Z,11.56
2017-03-20T00:39:32.332Z,11.43
2017-03-20T00:40:31.696Z,11.46
2017-03-20T00:41:31.975Z,11.38
2017-03-20T00:42:32.266Z,11.35
2017-03-20T00:43:32.240Z,11.33
2017-03-20T00:44:31.636Z,11.39
2017-03-20T00:45:32.197Z,11.39
2017-03-20T00:46:32.196Z,11.47
2017-03-20T00:47:32.162Z,11.38
2017-03-20T00:48:32.158Z,11.39
2017-03-20T00:49:32.128Z,11.35
2017-03-20T00:50:32.107Z,11.35
2017-03-20T00:51:32.076Z,11.2
2017-03-20T00:52:31.783Z,11.23
2017-03-20T00:53:32.052Z,11.32
2017-03-20T00:54:32.026Z,11.28
2017-03-20T00:55:32.016Z,11.26
2017-03-20T00:56:31.997Z,11.33
2017-03-20T00:57:31.368Z,11.31
2017-03-20T00:58:31.336Z,11.42
2017-03-20T00:59:31.916Z,11.32
2017-03-20T01:00:31.907Z,11.39
2017-03-20T01:01:31.891Z,11.4
2017-03-20T01:02:31.869Z,11.47
2017-03-20T01:03:31.850Z,11.33
2017-03-20T01:04:31.217Z,11.35
2017-03-20T01:05:31.825Z,11.47
2017-03-20T01:06:31.781Z,11.4
2017-03-20T01:07:31.785Z,11.47
2017-03-20T01:08:31.739Z,11.54
2017-03-20T01:09:31.434Z,11.56
2017-03-20T01:10:31.396Z,11.61
2017-03-20T01:11:31.716Z,11.42
2017-03-20T01:12:31.375Z,11.43
2017-03-20T01:13:31.679Z,11.46
2017-03-20T01:14:31.319Z,11.33
2017-03-20T01:15:31.317Z,11.42
2017-03-20T01:16:31.290Z,11.42
2017-03-20T01:17:31.267Z,11.43
2017-03-20T01:18:31.556Z,11.4
2017-03-20T01:19:31.537Z,11.48
2017-03-20T01:20:31.522Z,11.5
2017-03-20T01:21:31.366Z,11.53
2017-03-20T01:22:31.166Z,11.53
2017-03-20T01:23:31.155Z,11.5
2017-03-20T01:24:31.437Z,11.47
2017-03-20T01:25:30.809Z,11.46
2017-03-20T01:26:31.086Z,11.42
2017-03-20T01:27:31.377Z,11.43
2017-03-20T01:28:31.067Z,11.42
2017-03-20T01:29:31.020Z,11.43
2017-03-20T01:30:31.298Z,11.46
2017-03-20T01:31:31.297Z,11.43
2017-03-20T01:32:30.652Z,11.46
2017-03-20T01:33:30.937Z,11.38
2017-03-20T01:34:31.267Z,11.5
2017-03-20T01:35:30.906Z,11.47
2017-03-20T01:36:31.186Z,11.48
2017-03-20T01:37:30.868Z,11.39
2017-03-20T01:38:31.154Z,11.5
2017-03-20T01:39:30.817Z,11.53
2017-03-20T01:40:31.126Z,11.53
2017-03-20T01:41:30.786Z,11.42
2017-03-20T01:42:30.771Z,11.51
2017-03-20T01:43:31.046Z,11.51
2017-03-20T01:44:31.040Z,11.35
2017-03-20T01:45:30.996Z,11.35
2017-03-20T01:46:31.039Z,11.33
2017-03-20T01:47:30.967Z,11.38
2017-03-20T01:48:31.024Z,11.36
2017-03-20T01:49:30.938Z,11.48
2017-03-20T01:50:30.917Z,11.43
2017-03-20T01:51:30.905Z,11.43
2017-03-20T01:52:30.266Z,11.36
2017-03-20T01:53:30.553Z,11.38
2017-03-20T01:54:30.826Z,11.33
2017-03-20T01:55:30.837Z,11.32
2017-03-20T01:56:30.788Z,11.38
2017-03-20T01:57:30.498Z,11.31
2017-03-20T01:58:30.152Z,11.26
2017-03-20T01:59:30.119Z,11.36
2017-03-20T02:00:30.707Z,11.33
2017-03-20T02:01:30.686Z,11.38
2017-03-20T02:02:30.058Z,11.43
2017-03-20T02:03:30.651Z,11.48
2017-03-20T02:04:30.316Z,11.32
2017-03-20T02:05:30.607Z,11.31
2017-03-20T02:06:30.585Z,11.28
2017-03-20T02:07:30.568Z,11.29
2017-03-20T02:08:30.547Z,11.42
2017-03-20T02:09:30.272Z,11.35
2017-03-20T02:10:30.207Z,11.35
2017-03-20T02:11:30.179Z,11.38
2017-03-20T02:12:30.467Z,11.28
2017-03-20T02:13:30.438Z,11.29
2017-03-20T02:14:30.440Z,11.24
2017-03-20T02:15:30.097Z,11.24
2017-03-20T02:16:30.380Z,11.36
2017-03-20T02:17:30.064Z,11.33
2017-03-20T02:18:30.354Z,11.42
2017-03-20T02:19:29.726Z,11.31
2017-03-20T02:20:30.316Z,11.17
2017-03-20T02:21:29.675Z,11.13
2017-03-20T02:22:30.266Z,11.06
2017-03-20T02:23:30.246Z,11.08
2017-03-20T02:24:29.929Z,11.21
2017-03-20T02:25:29.918Z,11.21
2017-03-20T02:26:30.185Z,11.17
2017-03-20T02:27:30.177Z,11.28
2017-03-20T02:28:29.850Z,11.24
2017-03-20T02:29:29.826Z,11.26
2017-03-20T02:30:30.097Z,11.32
2017-03-20T02:31:29.475Z,11.21
2017-03-20T02:32:29.764Z,11.21
2017-03-20T02:33:30.063Z,11.23
2017-03-20T02:34:30.093Z,11.26
2017-03-20T02:35:29.697Z,11.21
2017-03-20T02:36:29.676Z,11.1
2017-03-20T02:37:29.657Z,11.17
2017-03-20T02:38:29.339Z,11.18
2017-03-20T02:39:29.324Z,11.17
2017-03-20T02:40:29.596Z,11.14
2017-03-20T02:41:29.896Z,11.2
2017-03-20T02:42:29.615Z,11.11
2017-03-20T02:43:29.842Z,11.08
2017-03-20T02:44:29.826Z,11.08
2017-03-20T02:45:29.803Z,11.17
2017-03-20T02:46:29.499Z,11.14
2017-03-20T02:47:29.501Z,11.18
2017-03-20T02:48:29.447Z,11.2
2017-03-20T02:49:29.737Z,11.23
2017-03-20T02:50:29.696Z,11.32
2017-03-20T02:51:29.687Z,11.28
2017-03-20T02:52:29.404Z,11.15
2017-03-20T02:53:29.800Z,11.24
2017-03-20T02:54:29.065Z,11.26
2017-03-20T02:55:29.595Z,11.35
2017-03-20T02:56:29.577Z,11.33
2017-03-20T02:57:29.558Z,11.31
2017-03-20T02:58:29.594Z,11.2
2017-03-20T02:59:29.655Z,11.17
2017-03-20T03:00:29.548Z,11.11
2017-03-20T03:01:29.176Z,11.24
2017-03-20T03:02:29.156Z,11.21
2017-03-20T03:03:29.447Z,11.18
2017-03-20T03:04:29.133Z,11.21
2017-03-20T03:05:29.466Z,11.05
2017-03-20T03:06:29.127Z,11.06
2017-03-20T03:07:29.417Z,11.14
2017-03-20T03:08:29.347Z,11.26
2017-03-20T03:09:29.416Z,11.28
2017-03-20T03:10:29.324Z,11.18
2017-03-20T03:11:29.297Z,11.2
2017-03-20T03:12:28.959Z,11.21
2017-03-20T03:13:29.041Z,11.08
2017-03-20T03:14:28.917Z,11.13
2017-03-20T03:15:29.207Z,11.28
2017-03-20T03:16:28.877Z,11.2
2017-03-20T03:17:28.857Z,11.15
2017-03-20T03:18:28.537Z,11.2
2017-03-20T03:19:28.838Z,11.31
2017-03-20T03:20:29.105Z,11.17
2017-03-20T03:21:28.514Z,11.13
2017-03-20T03:22:29.173Z,11.21
2017-03-20T03:23:28.746Z,11.13
2017-03-20T03:24:29.088Z,11.17
2017-03-20T03:25:28.735Z,11.18
2017-03-20T03:26:28.364Z,11.17
2017-03-20T03:27:29.012Z,11.18
2017-03-20T03:28:29.069Z,11.23
2017-03-20T03:29:28.928Z,11.18
2017-03-20T03:30:28.916Z,11.08
2017-03-20T03:31:28.915Z,11.15
2017-03-20T03:32:28.257Z,11.17
2017-03-20T03:33:28.887Z,11.14
2017-03-20T03:34:28.516Z,11.05
2017-03-20T03:35:28.800Z,11.02
2017-03-20T03:36:28.777Z,11.17
2017-03-20T03:37:28.472Z,11.14
2017-03-20T03:38:28.842Z,11
2017-03-20T03:39:28.729Z,11.02
2017-03-20T03:40:28.397Z,11.11
2017-03-20T03:41:28.677Z,11.08
2017-03-20T03:42:28.358Z,11.21
2017-03-20T03:43:28.647Z,11.2
2017-03-20T03:44:28.311Z,11.15
2017-03-20T03:45:28.296Z,11.14
2017-03-20T03:46:28.277Z,11.13
2017-03-20T03:47:28.567Z,11.17
2017-03-20T03:48:28.233Z,11.13
2017-03-20T03:49:28.518Z,11.11
2017-03-20T03:50:28.487Z,11
2017-03-20T03:51:28.470Z,11.05
2017-03-20T03:52:28.454Z,11.14
2017-03-20T03:53:28.440Z,11.14
2017-03-20T03:54:28.408Z,11.02
2017-03-20T03:55:28.394Z,11.18
2017-03-20T03:56:28.367Z,11.08
2017-03-20T03:57:28.346Z,11.08
2017-03-20T03:58:28.038Z,11.1
2017-03-20T03:59:28.309Z,11.11
2017-03-20T04:00:27.991Z,11.08
2017-03-20T04:01:27.966Z,11.05
2017-03-20T04:02:28.348Z,11.15
2017-03-20T04:03:27.943Z,11.14
2017-03-20T04:04:27.999Z,11.23
2017-03-20T04:05:27.887Z,11.18
2017-03-20T04:06:27.911Z,11.03
2017-03-20T04:07:27.848Z,11.03
2017-03-20T04:08:28.237Z,11.15
2017-03-20T04:09:27.808Z,11.05
2017-03-20T04:10:27.827Z,11.17
2017-03-20T04:11:27.778Z,11.08
2017-03-20T04:12:28.154Z,11.13
2017-03-20T04:13:28.037Z,11.11
2017-03-20T04:14:27.758Z,11.21
2017-03-20T04:15:28.004Z,11.18
2017-03-20T04:16:27.967Z,11.18
2017-03-20T04:17:27.951Z,11.2
2017-03-20T04:18:27.626Z,11.14
2017-03-20T04:19:27.599Z,10.99
2017-03-20T04:20:27.948Z,11
2017-03-20T04:21:27.887Z,11.06
2017-03-20T04:22:27.696Z,11.17
2017-03-20T04:23:27.875Z,11.18
2017-03-20T04:24:27.874Z,11.21
2017-03-20T04:25:27.886Z,11.24
2017-03-20T04:26:27.264Z,11.33
2017-03-20T04:27:27.446Z,11.15
2017-03-20T04:28:27.469Z,11.2
2017-03-20T04:29:27.768Z,11.15
2017-03-20T04:30:27.715Z,11.21
2017-03-20T04:31:27.760Z,11.24
2017-03-20T04:32:27.718Z,11.29
2017-03-20T04:33:27.783Z,11.21
2017-03-20T04:34:27.346Z,11.31
2017-03-20T04:35:27.596Z,11.29
2017-03-20T04:36:27.349Z,11.2
2017-03-20T04:37:27.241Z,11.29
2017-03-20T04:38:27.516Z,11.13
2017-03-20T04:39:27.234Z,11.13
2017-03-20T04:40:27.576Z,11.29
2017-03-20T04:41:27.529Z,11.1
2017-03-20T04:42:27.253Z,11.14
2017-03-20T04:43:27.519Z,11.08
2017-03-20T04:44:27.171Z,11.15
2017-03-20T04:45:27.175Z,11.13
2017-03-20T04:46:26.758Z,11.2
2017-03-20T04:47:27.363Z,11.21
2017-03-20T04:48:27.336Z,11.17
2017-03-20T04:49:27.382Z,11.24
2017-03-20T04:50:26.978Z,11.13
2017-03-20T04:51:26.962Z,11.24
2017-03-20T04:52:27.262Z,11.23
2017-03-20T04:53:26.997Z,11.21
2017-03-20T04:54:27.281Z,11.36
2017-03-20T04:55:26.878Z,11.42
2017-03-20T04:56:26.851Z,11.26
2017-03-20T04:57:26.518Z,11.15
2017-03-20T04:58:27.124Z,11.13
2017-03-20T04:59:27.124Z,11.28
2017-03-20T05:00:27.084Z,11.32
2017-03-20T05:01:26.757Z,11.2
2017-03-20T05:02:26.730Z,11.13
2017-03-20T05:03:27.140Z,11.33
2017-03-20T05:04:27.001Z,11.28
2017-03-20T05:05:26.986Z,11.29
2017-03-20T05:06:26.966Z,11.32
2017-03-20T05:07:27.016Z,11.35
2017-03-20T05:08:26.984Z,11.29
2017-03-20T05:09:26.918Z,11.33
2017-03-20T05:10:26.259Z,11.4
2017-03-20T05:11:26.931Z,11.36
2017-03-20T05:12:26.847Z,11.42
2017-03-20T05:13:26.556Z,11.42
2017-03-20T05:14:26.817Z,11.21
2017-03-20T05:15:26.777Z,11.2
2017-03-20T05:16:26.138Z,11.28
2017-03-20T05:17:26.737Z,11.2
2017-03-20T05:18:26.802Z,11.23
2017-03-20T05:19:26.702Z,11.29
2017-03-20T05:20:26.679Z,11.29
2017-03-20T05:21:26.678Z,11.32
2017-03-20T05:22:26.628Z,11.28
2017-03-20T05:23:26.317Z,11.26
2017-03-20T05:24:26.285Z,11.35
2017-03-20T05:25:26.285Z,11.39
2017-03-20T05:26:26.549Z,11.36
2017-03-20T05:27:26.260Z,11.46
2017-03-20T05:28:26.530Z,11.39
2017-03-20T05:29:26.503Z,11.43
2017-03-20T05:30:26.484Z,11.36
2017-03-20T05:31:26.461Z,11.36
2017-03-20T05:32:26.448Z,11.33
2017-03-20T05:33:26.417Z,11.32
2017-03-20T05:34:26.444Z,11.33
2017-03-20T05:35:26.067Z,11.26
2017-03-20T05:36:26.057Z,11.32
2017-03-20T05:37:26.041Z,11.29
2017-03-20T05:38:26.017Z,11.23
2017-03-20T05:39:26.317Z,11.11
2017-03-20T05:40:26.277Z,11.26
2017-03-20T05:41:25.958Z,11.31
2017-03-20T05:42:26.247Z,11.31
2017-03-20T05:43:25.916Z,11.35
2017-03-20T05:44:25.956Z,11.26
2017-03-20T05:45:26.180Z,11.28
2017-03-20T05:46:26.231Z,11.36
2017-03-20T05:47:26.183Z,11.38
2017-03-20T05:48:26.111Z,11.35
2017-03-20T05:49:26.106Z,11.38
2017-03-20T05:50:25.837Z,11.39
2017-03-20T05:51:25.469Z,11.32
2017-03-20T05:52:25.840Z,11.24
2017-03-20T05:53:26.038Z,11.24
2017-03-20T05:54:26.135Z,11.13
2017-03-20T05:55:26.011Z,11.13
2017-03-20T05:56:25.776Z,11.26
2017-03-20T05:57:25.967Z,11.2
2017-03-20T05:58:25.721Z,11.33
2017-03-20T05:59:25.886Z,11.39
2017-03-20T06:00:25.577Z,11.29
2017-03-20T06:01:25.865Z,11.24
2017-03-20T06:02:25.839Z,11.18
2017-03-20T06:03:25.822Z,11.18
2017-03-20T06:04:25.578Z,11.21
2017-03-20T06:05:25.858Z,11.31
2017-03-20T06:06:25.765Z,11.26
2017-03-20T06:07:25.762Z,11.18
2017-03-20T06:08:25.516Z,11.18
2017-03-20T06:09:25.708Z,11.13
2017-03-20T06:10:25.067Z,11.06
2017-03-20T06:11:25.356Z,11.06
2017-03-20T06:12:25.762Z,11.15
2017-03-20T06:13:25.618Z,11.03
2017-03-20T06:14:25.660Z,11.08
2017-03-20T06:15:25.278Z,10.98
2017-03-20T06:16:25.544Z,11.11
2017-03-20T06:17:25.237Z,11.05
2017-03-20T06:18:25.266Z,11.1
2017-03-20T06:19:25.497Z,11.26
2017-03-20T06:20:25.261Z,11.38
2017-03-20T06:21:25.149Z,11.35
2017-03-20T06:22:25.127Z,11.24
2017-03-20T06:23:25.415Z,11.06
2017-03-20T06:24:25.389Z,11.05
2017-03-20T06:25:25.129Z,11.14
2017-03-20T06:26:25.456Z,11.23
2017-03-20T06:27:25.192Z,11.14
2017-03-20T06:28:25.322Z,11.05
2017-03-20T06:29:25.389Z,11.05
2017-03-20T06:30:24.957Z,11
2017-03-20T06:31:24.985Z,11.02
2017-03-20T06:32:25.038Z,11.15
2017-03-20T06:33:25.215Z,11.08
2017-03-20T06:34:25.189Z,11.13
2017-03-20T06:35:25.167Z,11.13
2017-03-20T06:36:24.536Z,11.1
2017-03-20T06:37:25.229Z,10.98
2017-03-20T06:38:24.809Z,11.05
2017-03-20T06:39:25.092Z,10.99
2017-03-20T06:40:24.754Z,11
2017-03-20T06:41:24.466Z,11.05
2017-03-20T06:42:25.016Z,11.1
2017-03-20T06:43:25.008Z,11.15
2017-03-20T06:44:24.996Z,11.21
2017-03-20T06:45:24.967Z,11.14
2017-03-20T06:46:24.945Z,11.1
2017-03-20T06:47:24.917Z,11.17
2017-03-20T06:48:24.935Z,11.03
2017-03-20T06:49:24.896Z,11.08
2017-03-20T06:50:24.877Z,11.14
2017-03-20T06:51:24.838Z,11.06
2017-03-20T06:52:24.816Z,11.11
2017-03-20T06:53:24.207Z,11.1
2017-03-20T06:54:24.775Z,11.17
2017-03-20T06:55:24.756Z,11.03
2017-03-20T06:56:24.737Z,11.05
2017-03-20T06:57:24.725Z,11.1
2017-03-20T06:58:24.688Z,11.05
2017-03-20T06:59:24.677Z,11.1
2017-03-20T07:00:24.668Z,11.1
2017-03-20T07:01:24.644Z,11.18
2017-03-20T07:02:24.619Z,11.15
2017-03-20T07:03:24.617Z,11.18
2017-03-20T07:04:24.586Z,11.26
2017-03-20T07:05:24.555Z,11.21
2017-03-20T07:06:24.227Z,11.28
2017-03-20T07:07:24.536Z,11.23
2017-03-20T07:08:23.879Z,11.32
2017-03-20T07:09:24.189Z,11.38
2017-03-20T07:10:24.456Z,11.36
2017-03-20T07:11:24.438Z,11.43
2017-03-20T07:12:24.428Z,11.26
2017-03-20T07:13:24.398Z,11.23
2017-03-20T07:14:24.090Z,11.14
2017-03-20T07:15:24.056Z,11.17
2017-03-20T07:16:24.025Z,11.17
2017-03-20T07:17:24.015Z,11.13
2017-03-20T07:18:24.321Z,11.17
2017-03-20T07:19:24.281Z,11.31
2017-03-20T07:20:24.256Z,11.33
2017-03-20T07:21:24.256Z,11.43
2017-03-20T07:22:24.216Z,11.47
2017-03-20T07:23:24.205Z,11.31
2017-03-20T07:24:24.177Z,11.35
2017-03-20T07:25:23.856Z,11.28
2017-03-20T07:26:24.136Z,11.2
2017-03-20T07:27:23.815Z,11.18
2017-03-20T07:28:24.096Z,11.24
2017-03-20T07:29:23.465Z,11.32
2017-03-20T07:30:23.507Z,11.28
2017-03-20T07:31:24.037Z,11.18
2017-03-20T07:32:24.016Z,11.17
2017-03-20T07:33:23.742Z,11.14
2017-03-20T07:34:23.986Z,11.18
2017-03-20T07:35:23.972Z,11.15
2017-03-20T07:36:23.635Z,11.06
2017-03-20T07:37:23.905Z,11.14
2017-03-20T07:38:23.585Z,11.1
2017-03-20T07:39:23.565Z,11.08
2017-03-20T07:40:23.856Z,11.08
2017-03-20T07:41:23.837Z,11.11
2017-03-20T07:42:23.815Z,11.15
2017-03-20T07:43:23.546Z,11.14
2017-03-20T07:44:23.778Z,11.18
2017-03-20T07:45:23.455Z,11.18
2017-03-20T07:46:23.431Z,11.14
2017-03-20T07:47:23.740Z,11.08
2017-03-20T07:48:23.488Z,11.03
2017-03-20T07:49:23.365Z,10.93
2017-03-20T07:50:23.141Z,10.98
2017-03-20T07:51:23.625Z,11.06
2017-03-20T07:52:23.656Z,10.93
2017-03-20T07:53:23.290Z,11
2017-03-20T07:54:23.269Z,11.11
2017-03-20T07:55:23.555Z,11.14
2017-03-20T07:56:23.527Z,11.1
2017-03-20T07:57:23.210Z,11.05
2017-03-20T07:58:23.498Z,11.13
2017-03-20T07:59:23.477Z,11.17
2017-03-20T08:00:23.446Z,11.03
2017-03-20T08:01:23.425Z,11.02
2017-03-20T08:02:23.106Z,11.13
2017-03-20T08:03:23.401Z,11.14
2017-03-20T08:04:23.377Z,11.08
2017-03-20T08:05:23.347Z,11.05
2017-03-20T08:06:23.336Z,11.13
2017-03-20T08:07:23.314Z,11.14
2017-03-20T08:08:22.977Z,11.1
2017-03-20T08:09:22.962Z,11.06
2017-03-20T08:10:23.240Z,10.93
2017-03-20T08:11:23.231Z,10.99
2017-03-20T08:12:22.585Z,10.98
2017-03-20T08:13:22.994Z,11.03
2017-03-20T08:14:22.856Z,11.06
2017-03-20T08:15:23.150Z,10.99
2017-03-20T08:16:23.117Z,11.03
2017-03-20T08:17:23.087Z,11.1
2017-03-20T08:18:23.082Z,11.05
2017-03-20T08:19:22.752Z,11.29
2017-03-20T08:20:22.736Z,11.17
2017-03-20T08:21:23.027Z,11.18
2017-03-20T08:22:22.998Z,11.15
2017-03-20T08:23:22.378Z,11.18
2017-03-20T08:24:22.366Z,11.23
2017-03-20T08:25:22.624Z,11.28
2017-03-20T08:26:22.926Z,11.33
2017-03-20T08:27:22.907Z,11.38
2017-03-20T08:28:22.878Z,11.36
2017-03-20T08:29:22.563Z,11.33
2017-03-20T08:30:22.836Z,11.29
2017-03-20T08:31:22.851Z,11.31
2017-03-20T08:32:22.486Z,11.33
2017-03-20T08:33:22.776Z,11.47
2017-03-20T08:34:22.766Z,11.43
2017-03-20T08:35:22.437Z,11.42
2017-03-20T08:36:22.416Z,11.5
2017-03-20T08:37:22.405Z,11.5
2017-03-20T08:38:22.375Z,11.61
2017-03-20T08:39:22.361Z,11.64
2017-03-20T08:40:22.325Z,11.53
2017-03-20T08:41:22.322Z,11.38
2017-03-20T08:42:22.587Z,11.33
2017-03-20T08:43:22.588Z,11.36
2017-03-20T08:44:22.268Z,11.46
2017-03-20T08:45:22.549Z,11.5
2017-03-20T08:46:22.517Z,11.36
2017-03-20T08:47:22.504Z,11.42
2017-03-20T08:48:22.499Z,11.4
2017-03-20T08:49:22.167Z,11.5
2017-03-20T08:50:22.136Z,11.56
2017-03-20T08:51:22.121Z,11.53
2017-03-20T08:52:22.400Z,11.72
2017-03-20T08:53:22.397Z,11.79
2017-03-20T08:54:22.368Z,11.69
2017-03-20T08:55:22.049Z,11.58
2017-03-20T08:56:22.305Z,11.57
2017-03-20T08:57:21.988Z,11.76
2017-03-20T08:58:22.287Z,11.71
2017-03-20T08:59:22.283Z,11.72
2017-03-20T09:00:22.242Z,11.71
2017-03-20T09:01:21.916Z,11.66
2017-03-20T09:02:22.205Z,11.83
2017-03-20T09:03:22.184Z,11.87
2017-03-20T09:04:22.159Z,11.64
2017-03-20T09:05:22.154Z,11.68
2017-03-20T09:06:22.128Z,11.75
2017-03-20T09:07:21.789Z,11.79
2017-03-20T09:08:22.090Z,11.94
2017-03-20T09:09:22.063Z,11.84
2017-03-20T09:10:22.059Z,11.9
2017-03-20T09:11:21.731Z,11.83
2017-03-20T09:12:21.710Z,11.79
2017-03-20T09:13:21.697Z,11.75
2017-03-20T09:14:21.806Z,11.79
2017-03-20T09:15:21.971Z,11.69
2017-03-20T09:16:21.637Z,11.76
2017-03-20T09:17:21.917Z,11.75
2017-03-20T09:18:21.898Z,11.72
2017-03-20T09:19:21.887Z,11.56
2017-03-20T09:20:21.846Z,11.58
2017-03-20T09:21:21.549Z,11.69
2017-03-20T09:22:21.514Z,11.81
2017-03-20T09:23:21.797Z,11.71
2017-03-20T09:24:21.507Z,11.84
2017-03-20T09:25:21.747Z,11.66
2017-03-20T09:26:21.111Z,11.89
2017-03-20T09:27:21.722Z,11.86
2017-03-20T09:28:21.214Z,11.76
2017-03-20T09:29:21.685Z,11.83
2017-03-20T09:30:21.357Z,11.86
2017-03-20T09:31:21.638Z,11.83
2017-03-20T09:32:21.317Z,11.84
2017-03-20T09:33:21.607Z,11.86
2017-03-20T09:34:21.591Z,11.95
2017-03-20T09:35:21.556Z,11.98
2017-03-20T09:36:21.235Z,11.87
2017-03-20T09:37:21.224Z,11.97
2017-03-20T09:38:21.498Z,11.81
2017-03-20T09:39:21.178Z,11.83
2017-03-20T09:40:21.456Z,11.83
2017-03-20T09:41:21.437Z,11.87
2017-03-20T09:42:21.219Z,11.97
2017-03-20T09:43:21.407Z,12.02
2017-03-20T09:44:21.379Z,12.03
2017-03-20T09:45:21.364Z,11.95
2017-03-20T09:46:21.038Z,11.91
2017-03-20T09:47:21.337Z,11.86
2017-03-20T09:48:21.324Z,11.83
2017-03-20T09:49:21.277Z,11.84
2017-03-20T09:50:21.267Z,11.71
2017-03-20T09:51:21.246Z,11.81
2017-03-20T09:52:20.926Z,11.81
2017-03-20T09:53:21.201Z,11.72
2017-03-20T09:54:21.187Z,11.84
2017-03-20T09:55:20.847Z,11.81
2017-03-20T09:56:21.178Z,11.57
2017-03-20T09:57:21.140Z,11.76
2017-03-20T09:58:21.117Z,11.58
2017-03-20T09:59:21.101Z,11.6
2017-03-20T10:00:20.757Z,11.57
2017-03-20T10:01:21.101Z,11.6
2017-03-20T10:02:21.017Z,11.71
2017-03-20T10:03:21.026Z,11.72
2017-03-20T10:04:20.983Z,11.71
2017-03-20T10:05:20.978Z,11.86
2017-03-20T10:06:20.951Z,11.81
2017-03-20T10:07:20.949Z,11.73
2017-03-20T10:08:20.606Z,11.84
2017-03-20T10:09:20.267Z,11.83
2017-03-20T10:10:20.574Z,11.95
2017-03-20T10:11:20.238Z,11.84
2017-03-20T10:12:20.518Z,11.79
2017-03-20T10:13:20.805Z,11.83
2017-03-20T10:14:20.803Z,11.79
2017-03-20T10:15:20.771Z,11.81
2017-03-20T10:16:20.448Z,11.86
2017-03-20T10:17:20.116Z,11.71
2017-03-20T10:18:20.439Z,11.56
2017-03-20T10:19:20.388Z,11.6
2017-03-20T10:20:20.683Z,11.57
2017-03-20T10:21:20.347Z,11.65
2017-03-20T10:22:20.640Z,11.73
2017-03-20T10:23:20.303Z,11.6
2017-03-20T10:24:20.593Z,11.71
2017-03-20T10:25:20.258Z,11.75
2017-03-20T10:26:20.248Z,11.76
2017-03-20T10:27:20.536Z,11.84
2017-03-20T10:28:20.506Z,11.81
2017-03-20T10:29:20.197Z,11.84
2017-03-20T10:30:20.174Z,11.81
2017-03-20T10:31:20.457Z,11.95
2017-03-20T10:32:20.437Z,11.86
2017-03-20T10:33:20.405Z,11.81
2017-03-20T10:34:19.786Z,11.84
2017-03-20T10:35:20.377Z,11.84
2017-03-20T10:36:20.347Z,11.86
2017-03-20T10:37:20.323Z,11.79
2017-03-20T10:38:20.317Z,11.83
2017-03-20T10:39:20.287Z,11.89
2017-03-20T10:40:20.276Z,11.97
2017-03-20T10:41:19.946Z,11.89
2017-03-20T10:42:20.235Z,11.9
2017-03-20T10:43:19.917Z,11.94
2017-03-20T10:44:20.198Z,11.94
2017-03-20T10:45:19.877Z,11.97
2017-03-20T10:46:20.160Z,11.97
2017-03-20T10:47:19.845Z,12.03
2017-03-20T10:48:20.130Z,12.03
2017-03-20T10:49:20.112Z,12.07
2017-03-20T10:50:20.165Z,12.13
2017-03-20T10:51:19.752Z,12.07
2017-03-20T10:52:19.747Z,12.02
2017-03-20T10:53:19.708Z,11.97
2017-03-20T10:54:19.719Z,11.91
2017-03-20T10:55:19.987Z,11.9
2017-03-20T10:56:19.666Z,12.05
2017-03-20T10:57:19.625Z,12.21
2017-03-20T10:58:19.929Z,12.13
2017-03-20T10:59:19.635Z,12.2
2017-03-20T11:00:19.584Z,12.3
2017-03-20T11:01:19.874Z,12.13
2017-03-20T11:02:19.846Z,12.02
2017-03-20T11:03:19.527Z,11.98
2017-03-20T11:04:19.509Z,11.89
2017-03-20T11:05:19.795Z,11.81
2017-03-20T11:06:19.764Z,11.86
2017-03-20T11:07:19.768Z,11.86
2017-03-20T11:08:19.729Z,11.69
2017-03-20T11:09:19.418Z,11.84
2017-03-20T11:10:19.699Z,11.71
2017-03-20T11:11:19.676Z,11.71
2017-03-20T11:12:19.051Z,11.79
2017-03-20T11:13:19.635Z,11.89
2017-03-20T11:14:19.649Z,11.99
2017-03-20T11:15:19.614Z,11.91
2017-03-20T11:16:19.275Z,11.9
2017-03-20T11:17:19.557Z,11.81
2017-03-20T11:18:18.978Z,11.89
2017-03-20T11:19:19.527Z,11.86
2017-03-20T11:20:19.196Z,11.94
2017-03-20T11:21:19.484Z,11.99
2017-03-20T11:22:19.467Z,11.91
2017-03-20T11:23:19.454Z,11.97
2017-03-20T11:24:19.433Z,11.9
2017-03-20T11:25:19.414Z,12.02
2017-03-20T11:26:19.442Z,11.94
2017-03-20T11:27:19.379Z,11.89
2017-03-20T11:28:19.369Z,11.98
2017-03-20T11:29:19.047Z,11.97
2017-03-20T11:30:18.987Z,11.84
2017-03-20T11:31:19.279Z,11.89
2017-03-20T11:32:19.504Z,11.79
2017-03-20T11:33:19.291Z,11.86
2017-03-20T11:34:19.229Z,12.02
2017-03-20T11:35:19.214Z,11.94
2017-03-20T11:36:19.187Z,11.97
2017-03-20T11:37:19.176Z,12.06
2017-03-20T11:38:19.153Z,12.03
2017-03-20T11:39:18.818Z,11.95
2017-03-20T11:40:19.116Z,11.98
2017-03-20T11:41:19.136Z,11.95
2017-03-20T11:42:19.080Z,11.75
2017-03-20T11:43:19.048Z,11.81
2017-03-20T11:44:19.036Z,11.94
2017-03-20T11:45:19.056Z,11.89
2017-03-20T11:46:19.008Z,12.07
2017-03-20T11:47:18.982Z,12.02
2017-03-20T11:48:18.657Z,12.05
2017-03-20T11:49:18.629Z,12.02
2017-03-20T11:50:18.917Z,12.12
2017-03-20T11:51:18.933Z,11.98
2017-03-20T11:52:18.566Z,11.97
2017-03-20T11:53:18.858Z,12.02
2017-03-20T11:54:18.867Z,12.02
2017-03-20T11:55:18.826Z,12.12
2017-03-20T11:56:18.509Z,12.2
2017-03-20T11:57:18.486Z,12.2
2017-03-20T11:58:18.757Z,12.06
2017-03-20T11:59:18.767Z,12.15
2017-03-20T12:00:18.722Z,12.1
2017-03-20T12:01:18.387Z,12.17
2017-03-20T12:02:18.680Z,12.24
2017-03-20T12:03:18.678Z,12.23
2017-03-20T12:04:18.658Z,12.23
2017-03-20T12:05:18.308Z,12.3
2017-03-20T12:06:18.295Z,12.17
2017-03-20T12:07:18.587Z,12.3
2017-03-20T12:08:18.566Z,12.4
2017-03-20T12:09:18.237Z,12.31
2017-03-20T12:10:18.526Z,12.42
2017-03-20T12:11:18.517Z,12.5
2017-03-20T12:12:18.176Z,12.46
2017-03-20T12:13:18.162Z,12.43
2017-03-20T12:14:18.142Z,12.48
2017-03-20T12:15:18.124Z,12.55
2017-03-20T12:16:18.107Z,12.53
2017-03-20T12:17:18.388Z,12.63
2017-03-20T12:18:18.397Z,12.7
2017-03-20T12:19:18.367Z,12.7
2017-03-20T12:20:18.346Z,12.74
2017-03-20T12:21:18.324Z,12.82
2017-03-20T12:22:17.999Z,12.85
2017-03-20T12:23:18.308Z,12.85
2017-03-20T12:24:18.262Z,12.97
2017-03-20T12:25:18.236Z,12.94
2017-03-20T12:26:18.223Z,13
2017-03-20T12:27:18.200Z,12.94
2017-03-20T12:28:17.878Z,12.7
2017-03-20T12:29:18.174Z,12.81
2017-03-20T12:30:18.161Z,12.81
2017-03-20T12:31:18.119Z,13
2017-03-20T12:32:17.816Z,13.03
2017-03-20T12:33:18.089Z,13.16
2017-03-20T12:34:18.077Z,13.29
2017-03-20T12:35:18.047Z,13.47
2017-03-20T12:36:18.039Z,13.78
2017-03-20T12:37:18.019Z,13.93
2017-03-20T12:38:18.005Z,13.96
2017-03-20T12:39:17.988Z,13.7
2017-03-20T12:40:17.957Z,13.72
2017-03-20T12:41:17.627Z,13.57
2017-03-20T12:42:17.938Z,13.56
2017-03-20T12:43:17.596Z,13.6
2017-03-20T12:44:17.318Z,13.78
2017-03-20T12:45:17.875Z,13.77
2017-03-20T12:46:17.558Z,13.75
2017-03-20T12:47:17.524Z,13.71
2017-03-20T12:48:17.827Z,13.74
2017-03-20T12:49:17.808Z,13.72
2017-03-20T12:50:17.789Z,13.78
2017-03-20T12:51:17.766Z,13.81
2017-03-20T12:52:17.506Z,13.75
2017-03-20T12:53:17.727Z,13.82
2017-03-20T12:54:17.717Z,13.78
2017-03-20T12:55:17.699Z,13.77